sensor_id;sensor_type;location;lat;lon;timestamp;P1;durP1;ratioP1;P2;durP2;ratioP2
37049;SDS011;22958;51.232;6.826;2023-03-14T00:01:50;10.83;;;2.03;;
37049;SDS011;22958;51.232;6.826;2023-03-14T00:04:15;10.00;;;2.03;;
37049;SDS011;22958;51.232;6.826;2023-03-14T00:06:41;9.13;;;1.97;;
37049;SDS011;22958;51.232;6.826;2023-03-14T00:09:07;10.07;;;2.13;;
37049;SDS011;22958;51.232;6.826;2023-03-14T00:11:32;10.93;;;2.37;;
37049;SDS011;22958;51.232;6.826;2023-03-14T00:13:58;13.80;;;2.10;;
37049;SDS011;22958;51.232;6.826;2023-03-14T00:16:24;7.82;;;2.00;;
37049;SDS011;22958;51.232;6.826;2023-03-14T00:18:50;11.13;;;1.70;;
37049;SDS011;22958;51.232;6.826;2023-03-14T00:21:16;11.60;;;1.73;;
37049;SDS011;22958;51.232;6.826;2023-03-14T00:23:43;9.38;;;1.98;;
37049;SDS011;22958;51.232;6.826;2023-03-14T00:26:10;11.60;;;1.77;;
37049;SDS011;22958;51.232;6.826;2023-03-14T00:28:37;9.90;;;1.70;;
37049;SDS011;22958;51.232;6.826;2023-03-14T00:31:04;10.10;;;1.90;;
37049;SDS011;22958;51.232;6.826;2023-03-14T00:33:31;19.27;;;3.20;;
37049;SDS011;22958;51.232;6.826;2023-03-14T00:35:57;14.97;;;2.27;;
37049;SDS011;22958;51.232;6.826;2023-03-14T00:38:25;11.43;;;1.90;;
37049;SDS011;22958;51.232;6.826;2023-03-14T00:40:51;19.38;;;3.15;;
37049;SDS011;22958;51.232;6.826;2023-03-14T00:43:17;14.18;;;2.20;;
37049;SDS011;22958;51.232;6.826;2023-03-14T00:45:43;10.32;;;1.80;;
37049;SDS011;22958;51.232;6.826;2023-03-14T00:48:09;11.50;;;2.07;;
37049;SDS011;22958;51.232;6.826;2023-03-14T00:50:34;21.40;;;2.83;;
37049;SDS011;22958;51.232;6.826;2023-03-14T00:53:00;19.17;;;2.83;;
37049;SDS011;22958;51.232;6.826;2023-03-14T00:55:25;9.37;;;3.10;;
37049;SDS011;22958;51.232;6.826;2023-03-14T00:57:51;13.73;;;2.70;;
37049;SDS011;22958;51.232;6.826;2023-03-14T01:00:17;12.97;;;2.10;;
37049;SDS011;22958;51.232;6.826;2023-03-14T01:02:42;11.17;;;1.80;;
37049;SDS011;22958;51.232;6.826;2023-03-14T01:05:08;8.43;;;1.83;;
37049;SDS011;22958;51.232;6.826;2023-03-14T01:07:35;13.45;;;1.83;;
37049;SDS011;22958;51.232;6.826;2023-03-14T01:10:01;9.27;;;1.55;;
37049;SDS011;22958;51.232;6.826;2023-03-14T01:12:28;9.63;;;1.13;;
37049;SDS011;22958;51.232;6.826;2023-03-14T01:14:53;11.17;;;1.30;;
37049;SDS011;22958;51.232;6.826;2023-03-14T01:17:19;20.13;;;1.90;;
37049;SDS011;22958;51.232;6.826;2023-03-14T01:19:44;9.47;;;1.57;;
37049;SDS011;22958;51.232;6.826;2023-03-14T01:22:10;11.70;;;1.67;;
37049;SDS011;22958;51.232;6.826;2023-03-14T01:24:36;9.30;;;1.53;;
37049;SDS011;22958;51.232;6.826;2023-03-14T01:29:27;11.50;;;1.65;;
37049;SDS011;22958;51.232;6.826;2023-03-14T01:31:53;12.43;;;1.70;;
37049;SDS011;22958;51.232;6.826;2023-03-14T01:34:18;10.63;;;1.57;;
37049;SDS011;22958;51.232;6.826;2023-03-14T01:36:44;10.80;;;2.13;;
37049;SDS011;22958;51.232;6.826;2023-03-14T01:39:09;9.43;;;1.93;;
37049;SDS011;22958;51.232;6.826;2023-03-14T01:41:35;10.93;;;1.70;;
37049;SDS011;22958;51.232;6.826;2023-03-14T01:44:01;10.23;;;1.90;;
37049;SDS011;22958;51.232;6.826;2023-03-14T01:46:39;13.97;;;1.63;;
37049;SDS011;22958;51.232;6.826;2023-03-14T01:52:02;8.77;;;1.88;;
37049;SDS011;22958;51.232;6.826;2023-03-14T02:00:08;11.82;;;2.22;;
37049;SDS011;22958;51.232;6.826;2023-03-14T02:02:36;11.60;;;2.47;;
37049;SDS011;22958;51.232;6.826;2023-03-14T02:05:04;9.93;;;1.83;;
37049;SDS011;22958;51.232;6.826;2023-03-14T02:07:35;17.30;;;2.30;;
37049;SDS011;22958;51.232;6.826;2023-03-14T02:10:10;19.80;;;2.03;;
37049;SDS011;22958;51.232;6.826;2023-03-14T02:12:36;20.57;;;2.17;;
37049;SDS011;22958;51.232;6.826;2023-03-14T02:15:02;15.30;;;1.73;;
37049;SDS011;22958;51.232;6.826;2023-03-14T02:17:28;13.70;;;1.70;;
37049;SDS011;22958;51.232;6.826;2023-03-14T02:22:25;6.60;;;1.20;;
37049;SDS011;22958;51.232;6.826;2023-03-14T02:25:06;11.13;;;1.97;;
37049;SDS011;22958;51.232;6.826;2023-03-14T02:27:45;5.68;;;1.25;;
37049;SDS011;22958;51.232;6.826;2023-03-14T02:32:43;9.52;;;1.40;;
37049;SDS011;22958;51.232;6.826;2023-03-14T02:35:16;12.60;;;1.75;;
37049;SDS011;22958;51.232;6.826;2023-03-14T02:37:47;8.35;;;1.50;;
37049;SDS011;22958;51.232;6.826;2023-03-14T02:40:19;14.15;;;1.70;;
37049;SDS011;22958;51.232;6.826;2023-03-14T02:42:45;9.30;;;1.63;;
37049;SDS011;22958;51.232;6.826;2023-03-14T02:47:37;9.60;;;1.93;;
37049;SDS011;22958;51.232;6.826;2023-03-14T02:50:13;16.05;;;1.90;;
37049;SDS011;22958;51.232;6.826;2023-03-14T02:52:42;12.45;;;2.08;;
37049;SDS011;22958;51.232;6.826;2023-03-14T02:55:07;15.77;;;2.43;;
37049;SDS011;22958;51.232;6.826;2023-03-14T02:57:33;10.35;;;1.80;;
37049;SDS011;22958;51.232;6.826;2023-03-14T02:59:59;9.67;;;1.83;;
37049;SDS011;22958;51.232;6.826;2023-03-14T03:02:25;9.60;;;1.85;;
37049;SDS011;22958;51.232;6.826;2023-03-14T03:07:17;10.35;;;2.00;;
37049;SDS011;22958;51.232;6.826;2023-03-14T03:09:44;9.88;;;1.45;;
37049;SDS011;22958;51.232;6.826;2023-03-14T03:12:09;9.77;;;1.77;;
37049;SDS011;22958;51.232;6.826;2023-03-14T03:14:35;14.30;;;2.40;;
37049;SDS011;22958;51.232;6.826;2023-03-14T03:17:02;11.38;;;2.08;;
37049;SDS011;22958;51.232;6.826;2023-03-14T03:19:28;10.27;;;1.85;;
37049;SDS011;22958;51.232;6.826;2023-03-14T03:21:54;6.70;;;1.20;;
37049;SDS011;22958;51.232;6.826;2023-03-14T03:24:19;9.30;;;1.40;;
37049;SDS011;22958;51.232;6.826;2023-03-14T03:26:45;12.10;;;1.30;;
37049;SDS011;22958;51.232;6.826;2023-03-14T03:29:10;9.13;;;2.10;;
37049;SDS011;22958;51.232;6.826;2023-03-14T03:31:36;9.20;;;1.50;;
37049;SDS011;22958;51.232;6.826;2023-03-14T03:36:28;11.07;;;2.17;;
37049;SDS011;22958;51.232;6.826;2023-03-14T03:38:54;7.70;;;1.27;;
37049;SDS011;22958;51.232;6.826;2023-03-14T03:41:19;20.03;;;2.07;;
37049;SDS011;22958;51.232;6.826;2023-03-14T03:43:45;8.70;;;1.93;;
37049;SDS011;22958;51.232;6.826;2023-03-14T03:46:10;16.83;;;1.80;;
37049;SDS011;22958;51.232;6.826;2023-03-14T03:48:36;19.40;;;2.87;;
37049;SDS011;22958;51.232;6.826;2023-03-14T03:51:02;15.07;;;2.30;;
37049;SDS011;22958;51.232;6.826;2023-03-14T03:53:27;13.83;;;2.07;;
37049;SDS011;22958;51.232;6.826;2023-03-14T03:55:53;11.57;;;1.20;;
37049;SDS011;22958;51.232;6.826;2023-03-14T03:58:18;8.60;;;1.23;;
37049;SDS011;22958;51.232;6.826;2023-03-14T04:00:44;11.67;;;1.60;;
37049;SDS011;22958;51.232;6.826;2023-03-14T04:03:09;19.27;;;2.03;;
37049;SDS011;22958;51.232;6.826;2023-03-14T04:05:35;20.37;;;1.90;;
37049;SDS011;22958;51.232;6.826;2023-03-14T04:08:01;26.50;;;3.03;;
37049;SDS011;22958;51.232;6.826;2023-03-14T04:10:28;20.80;;;2.28;;
37049;SDS011;22958;51.232;6.826;2023-03-14T04:12:54;12.82;;;1.95;;
37049;SDS011;22958;51.232;6.826;2023-03-14T04:15:19;17.43;;;3.17;;
37049;SDS011;22958;51.232;6.826;2023-03-14T04:17:45;20.90;;;2.93;;
37049;SDS011;22958;51.232;6.826;2023-03-14T04:20:10;17.53;;;2.43;;
37049;SDS011;22958;51.232;6.826;2023-03-14T04:22:37;23.75;;;4.18;;
37049;SDS011;22958;51.232;6.826;2023-03-14T04:25:03;21.25;;;3.67;;
37049;SDS011;22958;51.232;6.826;2023-03-14T04:27:29;27.58;;;4.38;;
37049;SDS011;22958;51.232;6.826;2023-03-14T04:29:54;17.03;;;3.27;;
37049;SDS011;22958;51.232;6.826;2023-03-14T04:32:20;26.83;;;4.07;;
37049;SDS011;22958;51.232;6.826;2023-03-14T04:34:45;23.23;;;4.23;;
37049;SDS011;22958;51.232;6.826;2023-03-14T04:37:11;22.27;;;3.37;;
37049;SDS011;22958;51.232;6.826;2023-03-14T04:39:37;20.67;;;3.60;;
37049;SDS011;22958;51.232;6.826;2023-03-14T04:42:02;17.23;;;2.83;;
37049;SDS011;22958;51.232;6.826;2023-03-14T04:44:28;13.60;;;2.77;;
37049;SDS011;22958;51.232;6.826;2023-03-14T04:46:54;14.90;;;2.50;;
37049;SDS011;22958;51.232;6.826;2023-03-14T04:49:19;10.70;;;2.87;;
37049;SDS011;22958;51.232;6.826;2023-03-14T04:51:45;14.00;;;3.10;;
37049;SDS011;22958;51.232;6.826;2023-03-14T04:54:10;18.27;;;2.93;;
37049;SDS011;22958;51.232;6.826;2023-03-14T04:56:36;18.50;;;3.17;;
37049;SDS011;22958;51.232;6.826;2023-03-14T04:59:02;22.23;;;3.10;;
37049;SDS011;22958;51.232;6.826;2023-03-14T05:01:28;24.20;;;3.05;;
37049;SDS011;22958;51.232;6.826;2023-03-14T05:03:53;16.00;;;2.47;;
37049;SDS011;22958;51.232;6.826;2023-03-14T05:06:19;17.73;;;3.20;;
37049;SDS011;22958;51.232;6.826;2023-03-14T05:08:45;14.23;;;2.83;;
37049;SDS011;22958;51.232;6.826;2023-03-14T05:11:10;10.87;;;2.77;;
37049;SDS011;22958;51.232;6.826;2023-03-14T05:16:06;11.25;;;2.75;;
37049;SDS011;22958;51.232;6.826;2023-03-14T05:18:34;17.17;;;2.10;;
37049;SDS011;22958;51.232;6.826;2023-03-14T05:21:00;11.03;;;2.37;;
37049;SDS011;22958;51.232;6.826;2023-03-14T05:23:25;15.57;;;2.20;;
37049;SDS011;22958;51.232;6.826;2023-03-14T05:25:51;10.53;;;2.60;;
37049;SDS011;22958;51.232;6.826;2023-03-14T05:28:17;11.35;;;1.90;;
37049;SDS011;22958;51.232;6.826;2023-03-14T05:30:43;9.67;;;2.50;;
37049;SDS011;22958;51.232;6.826;2023-03-14T05:33:08;14.33;;;3.27;;
37049;SDS011;22958;51.232;6.826;2023-03-14T05:35:34;11.80;;;1.80;;
37049;SDS011;22958;51.232;6.826;2023-03-14T05:37:59;12.53;;;2.03;;
37049;SDS011;22958;51.232;6.826;2023-03-14T05:40:25;8.30;;;1.53;;
37049;SDS011;22958;51.232;6.826;2023-03-14T05:42:50;6.63;;;1.73;;
37049;SDS011;22958;51.232;6.826;2023-03-14T05:45:17;5.68;;;1.60;;
37049;SDS011;22958;51.232;6.826;2023-03-14T05:47:42;7.60;;;1.43;;
37049;SDS011;22958;51.232;6.826;2023-03-14T05:50:08;8.00;;;1.57;;
37049;SDS011;22958;51.232;6.826;2023-03-14T05:52:34;6.97;;;2.08;;
37049;SDS011;22958;51.232;6.826;2023-03-14T05:55:00;9.20;;;1.80;;
37049;SDS011;22958;51.232;6.826;2023-03-14T05:57:25;3.10;;;1.10;;
37049;SDS011;22958;51.232;6.826;2023-03-14T05:59:51;3.87;;;0.80;;
37049;SDS011;22958;51.232;6.826;2023-03-14T06:02:16;3.03;;;0.77;;
37049;SDS011;22958;51.232;6.826;2023-03-14T06:04:42;3.50;;;0.80;;
37049;SDS011;22958;51.232;6.826;2023-03-14T06:07:07;3.70;;;1.00;;
37049;SDS011;22958;51.232;6.826;2023-03-14T06:09:33;2.93;;;0.70;;
37049;SDS011;22958;51.232;6.826;2023-03-14T06:11:58;2.63;;;0.60;;
37049;SDS011;22958;51.232;6.826;2023-03-14T06:14:24;0.90;;;0.20;;
37049;SDS011;22958;51.232;6.826;2023-03-14T06:16:51;2.33;;;0.30;;
37049;SDS011;22958;51.232;6.826;2023-03-14T06:19:17;2.50;;;0.30;;
37049;SDS011;22958;51.232;6.826;2023-03-14T06:21:43;3.33;;;0.77;;
37049;SDS011;22958;51.232;6.826;2023-03-14T06:24:08;0.50;;;0.30;;
37049;SDS011;22958;51.232;6.826;2023-03-14T06:26:34;1.93;;;0.43;;
37049;SDS011;22958;51.232;6.826;2023-03-14T06:28:59;1.17;;;0.30;;
37049;SDS011;22958;51.232;6.826;2023-03-14T06:31:28;4.65;;;0.30;;
37049;SDS011;22958;51.232;6.826;2023-03-14T06:36:20;3.90;;;0.40;;
37049;SDS011;22958;51.232;6.826;2023-03-14T06:38:46;6.90;;;0.40;;
37049;SDS011;22958;51.232;6.826;2023-03-14T06:41:11;1.83;;;0.50;;
37049;SDS011;22958;51.232;6.826;2023-03-14T06:43:37;0.30;;;0.20;;
37049;SDS011;22958;51.232;6.826;2023-03-14T06:46:02;2.20;;;0.30;;
37049;SDS011;22958;51.232;6.826;2023-03-14T06:48:28;1.23;;;0.43;;
37049;SDS011;22958;51.232;6.826;2023-03-14T06:50:53;1.13;;;0.43;;
37049;SDS011;22958;51.232;6.826;2023-03-14T06:53:19;3.10;;;0.60;;
37049;SDS011;22958;51.232;6.826;2023-03-14T06:55:44;0.70;;;0.30;;
37049;SDS011;22958;51.232;6.826;2023-03-14T06:58:10;2.92;;;0.30;;
37049;SDS011;22958;51.232;6.826;2023-03-14T07:00:36;3.60;;;0.97;;
37049;SDS011;22958;51.232;6.826;2023-03-14T07:03:01;4.23;;;0.50;;
37049;SDS011;22958;51.232;6.826;2023-03-14T07:05:27;2.33;;;0.70;;
37049;SDS011;22958;51.232;6.826;2023-03-14T07:07:53;1.13;;;0.70;;
37049;SDS011;22958;51.232;6.826;2023-03-14T07:10:18;0.87;;;0.33;;
37049;SDS011;22958;51.232;6.826;2023-03-14T07:12:44;1.20;;;0.57;;
37049;SDS011;22958;51.232;6.826;2023-03-14T07:15:09;1.50;;;0.80;;
37049;SDS011;22958;51.232;6.826;2023-03-14T07:17:35;5.00;;;0.70;;
37049;SDS011;22958;51.232;6.826;2023-03-14T07:20:01;0.90;;;0.50;;
37049;SDS011;22958;51.232;6.826;2023-03-14T07:22:28;1.70;;;0.52;;
37049;SDS011;22958;51.232;6.826;2023-03-14T07:24:53;1.67;;;0.60;;
37049;SDS011;22958;51.232;6.826;2023-03-14T07:27:19;0.97;;;0.40;;
37049;SDS011;22958;51.232;6.826;2023-03-14T07:29:44;1.47;;;0.60;;
37049;SDS011;22958;51.232;6.826;2023-03-14T07:32:10;13.63;;;1.27;;
37049;SDS011;22958;51.232;6.826;2023-03-14T07:34:43;0.75;;;0.40;;
37049;SDS011;22958;51.232;6.826;2023-03-14T07:37:09;3.08;;;0.73;;
37049;SDS011;22958;51.232;6.826;2023-03-14T07:39:35;1.63;;;0.50;;
37049;SDS011;22958;51.232;6.826;2023-03-14T07:42:00;1.90;;;0.50;;
37049;SDS011;22958;51.232;6.826;2023-03-14T07:44:26;1.33;;;0.70;;
37049;SDS011;22958;51.232;6.826;2023-03-14T07:46:51;3.20;;;0.40;;
37049;SDS011;22958;51.232;6.826;2023-03-14T07:49:17;2.43;;;0.40;;
37049;SDS011;22958;51.232;6.826;2023-03-14T07:51:43;3.20;;;0.30;;
37049;SDS011;22958;51.232;6.826;2023-03-14T07:54:11;4.00;;;0.60;;
37049;SDS011;22958;51.232;6.826;2023-03-14T07:56:36;2.03;;;0.50;;
37049;SDS011;22958;51.232;6.826;2023-03-14T07:59:02;0.90;;;0.60;;
37049;SDS011;22958;51.232;6.826;2023-03-14T08:01:28;2.05;;;0.63;;
37049;SDS011;22958;51.232;6.826;2023-03-14T08:03:54;2.17;;;0.60;;
37049;SDS011;22958;51.232;6.826;2023-03-14T08:06:19;4.37;;;0.97;;
37049;SDS011;22958;51.232;6.826;2023-03-14T08:08:45;2.40;;;0.60;;
37049;SDS011;22958;51.232;6.826;2023-03-14T08:11:10;2.57;;;0.70;;
37049;SDS011;22958;51.232;6.826;2023-03-14T08:13:36;1.70;;;0.50;;
37049;SDS011;22958;51.232;6.826;2023-03-14T08:16:02;1.48;;;0.43;;
37049;SDS011;22958;51.232;6.826;2023-03-14T08:18:29;3.10;;;0.50;;
37049;SDS011;22958;51.232;6.826;2023-03-14T08:20:55;4.80;;;0.65;;
37049;SDS011;22958;51.232;6.826;2023-03-14T08:23:20;1.03;;;0.50;;
37049;SDS011;22958;51.232;6.826;2023-03-14T08:25:48;2.27;;;0.80;;
37049;SDS011;22958;51.232;6.826;2023-03-14T08:28:14;0.90;;;0.40;;
37049;SDS011;22958;51.232;6.826;2023-03-14T08:30:40;3.50;;;0.73;;
37049;SDS011;22958;51.232;6.826;2023-03-14T08:33:05;1.13;;;0.40;;
37049;SDS011;22958;51.232;6.826;2023-03-14T08:35:31;0.97;;;0.60;;
37049;SDS011;22958;51.232;6.826;2023-03-14T08:37:56;0.83;;;0.50;;
37049;SDS011;22958;51.232;6.826;2023-03-14T08:40:22;1.60;;;0.60;;
37049;SDS011;22958;51.232;6.826;2023-03-14T08:42:48;5.47;;;0.87;;
37049;SDS011;22958;51.232;6.826;2023-03-14T08:45:14;5.03;;;0.50;;
37049;SDS011;22958;51.232;6.826;2023-03-14T08:47:41;3.10;;;0.70;;
37049;SDS011;22958;51.232;6.826;2023-03-14T08:50:08;2.70;;;1.23;;
37049;SDS011;22958;51.232;6.826;2023-03-14T08:52:34;2.97;;;0.80;;
37049;SDS011;22958;51.232;6.826;2023-03-14T08:55:00;4.07;;;0.90;;
37049;SDS011;22958;51.232;6.826;2023-03-14T08:57:25;6.07;;;0.90;;
37049;SDS011;22958;51.232;6.826;2023-03-14T08:59:54;7.07;;;1.45;;
37049;SDS011;22958;51.232;6.826;2023-03-14T09:04:46;2.95;;;1.40;;
37049;SDS011;22958;51.232;6.826;2023-03-14T09:07:12;2.93;;;1.20;;
37049;SDS011;22958;51.232;6.826;2023-03-14T09:09:37;4.13;;;1.40;;
37049;SDS011;22958;51.232;6.826;2023-03-14T09:12:03;4.20;;;1.50;;
37049;SDS011;22958;51.232;6.826;2023-03-14T09:14:29;2.53;;;1.30;;
37049;SDS011;22958;51.232;6.826;2023-03-14T09:16:55;7.38;;;1.50;;
37049;SDS011;22958;51.232;6.826;2023-03-14T09:19:21;1.87;;;1.33;;
37049;SDS011;22958;51.232;6.826;2023-03-14T09:21:46;3.13;;;1.40;;
37049;SDS011;22958;51.232;6.826;2023-03-14T09:24:12;8.10;;;2.10;;
37049;SDS011;22958;51.232;6.826;2023-03-14T09:26:38;3.83;;;1.03;;
37049;SDS011;22958;51.232;6.826;2023-03-14T09:29:03;4.20;;;0.80;;
37049;SDS011;22958;51.232;6.826;2023-03-14T09:31:29;3.53;;;0.50;;
37049;SDS011;22958;51.232;6.826;2023-03-14T09:33:55;0.87;;;0.20;;
37049;SDS011;22958;51.232;6.826;2023-03-14T09:36:20;1.33;;;0.37;;
37049;SDS011;22958;51.232;6.826;2023-03-14T09:38:46;1.40;;;0.30;;
37049;SDS011;22958;51.232;6.826;2023-03-14T09:41:16;1.53;;;0.40;;
37049;SDS011;22958;51.232;6.826;2023-03-14T09:44:04;0.55;;;0.20;;
37049;SDS011;22958;51.232;6.826;2023-03-14T09:46:35;3.85;;;0.70;;
37049;SDS011;22958;51.232;6.826;2023-03-14T09:49:02;2.20;;;0.90;;
37049;SDS011;22958;51.232;6.826;2023-03-14T09:51:34;1.40;;;0.70;;
37049;SDS011;22958;51.232;6.826;2023-03-14T09:54:00;13.63;;;7.40;;
37049;SDS011;22958;51.232;6.826;2023-03-14T09:56:27;2.85;;;1.10;;
37049;SDS011;22958;51.232;6.826;2023-03-14T09:58:56;1.30;;;0.70;;
37049;SDS011;22958;51.232;6.826;2023-03-14T10:01:25;2.00;;;0.93;;
37049;SDS011;22958;51.232;6.826;2023-03-14T10:03:57;3.47;;;1.02;;
37049;SDS011;22958;51.232;6.826;2023-03-14T10:06:26;3.95;;;1.20;;
37049;SDS011;22958;51.232;6.826;2023-03-14T10:08:54;1.35;;;1.08;;
37049;SDS011;22958;51.232;6.826;2023-03-14T10:11:21;2.85;;;1.52;;
37049;SDS011;22958;51.232;6.826;2023-03-14T10:13:49;3.78;;;0.80;;
37049;SDS011;22958;51.232;6.826;2023-03-14T10:16:40;3.90;;;1.40;;
37049;SDS011;22958;51.232;6.826;2023-03-14T10:19:12;8.25;;;1.45;;
37049;SDS011;22958;51.232;6.826;2023-03-14T10:21:57;3.10;;;0.90;;
37049;SDS011;22958;51.232;6.826;2023-03-14T10:24:27;5.87;;;1.20;;
37049;SDS011;22958;51.232;6.826;2023-03-14T10:26:57;2.25;;;1.20;;
37049;SDS011;22958;51.232;6.826;2023-03-14T10:29:27;5.20;;;1.48;;
37049;SDS011;22958;51.232;6.826;2023-03-14T10:34:26;3.10;;;1.50;;
37049;SDS011;22958;51.232;6.826;2023-03-14T10:36:55;2.75;;;0.90;;
37049;SDS011;22958;51.232;6.826;2023-03-14T10:44:48;8.00;;;2.25;;
37049;SDS011;22958;51.232;6.826;2023-03-14T10:47:20;4.93;;;1.10;;
37049;SDS011;22958;51.232;6.826;2023-03-14T10:49:49;10.10;;;1.30;;
37049;SDS011;22958;51.232;6.826;2023-03-14T10:52:19;4.70;;;1.37;;
37049;SDS011;22958;51.232;6.826;2023-03-14T10:54:54;3.67;;;1.85;;
37049;SDS011;22958;51.232;6.826;2023-03-14T10:57:23;5.63;;;1.60;;
37049;SDS011;22958;51.232;6.826;2023-03-14T10:59:49;5.75;;;1.85;;
37049;SDS011;22958;51.232;6.826;2023-03-14T11:07:47;6.32;;;1.98;;
37049;SDS011;22958;51.232;6.826;2023-03-14T11:12:56;5.93;;;1.50;;
37049;SDS011;22958;51.232;6.826;2023-03-14T11:15:38;8.02;;;2.00;;
37049;SDS011;22958;51.232;6.826;2023-03-14T11:18:29;9.00;;;2.80;;
37049;SDS011;22958;51.232;6.826;2023-03-14T11:26:40;14.75;;;5.47;;
37049;SDS011;22958;51.232;6.826;2023-03-14T11:29:14;23.17;;;6.32;;
37049;SDS011;22958;51.232;6.826;2023-03-14T11:31:45;17.08;;;6.25;;
37049;SDS011;22958;51.232;6.826;2023-03-14T11:36:55;11.15;;;2.80;;
37049;SDS011;22958;51.232;6.826;2023-03-14T11:39:26;8.48;;;1.88;;
37049;SDS011;22958;51.232;6.826;2023-03-14T11:42:01;2.65;;;1.10;;
37049;SDS011;22958;51.232;6.826;2023-03-14T11:44:32;5.65;;;1.55;;
37049;SDS011;22958;51.232;6.826;2023-03-14T11:52:36;8.60;;;2.47;;
37049;SDS011;22958;51.232;6.826;2023-03-14T11:55:16;10.80;;;2.72;;
37049;SDS011;22958;51.232;6.826;2023-03-14T11:57:50;12.75;;;2.78;;
37049;SDS011;22958;51.232;6.826;2023-03-14T12:00:19;15.98;;;3.33;;
37049;SDS011;22958;51.232;6.826;2023-03-14T12:02:57;9.13;;;3.25;;
37049;SDS011;22958;51.232;6.826;2023-03-14T12:05:40;7.53;;;3.20;;
37049;SDS011;22958;51.232;6.826;2023-03-14T12:14:01;13.48;;;3.05;;
37049;SDS011;22958;51.232;6.826;2023-03-14T12:16:35;7.70;;;2.42;;
37049;SDS011;22958;51.232;6.826;2023-03-14T12:19:24;15.07;;;2.78;;
37049;SDS011;22958;51.232;6.826;2023-03-14T12:21:54;8.45;;;1.80;;
37049;SDS011;22958;51.232;6.826;2023-03-14T12:24:45;7.45;;;1.67;;
37049;SDS011;22958;51.232;6.826;2023-03-14T12:27:37;8.15;;;1.60;;
37049;SDS011;22958;51.232;6.826;2023-03-14T12:30:03;13.15;;;2.40;;
37049;SDS011;22958;51.232;6.826;2023-03-14T12:38:04;18.53;;;2.30;;
37049;SDS011;22958;51.232;6.826;2023-03-14T12:40:41;6.43;;;2.00;;
37049;SDS011;22958;51.232;6.826;2023-03-14T12:43:24;9.18;;;2.28;;
37049;SDS011;22958;51.232;6.826;2023-03-14T12:48:49;10.30;;;2.20;;
37049;SDS011;22958;51.232;6.826;2023-03-14T12:51:20;12.15;;;2.45;;
37049;SDS011;22958;51.232;6.826;2023-03-14T12:54:05;9.80;;;2.10;;
37049;SDS011;22958;51.232;6.826;2023-03-14T12:59:36;15.13;;;1.95;;
37049;SDS011;22958;51.232;6.826;2023-03-14T13:02:13;12.55;;;1.00;;
37049;SDS011;22958;51.232;6.826;2023-03-14T13:04:51;8.52;;;1.38;;
37049;SDS011;22958;51.232;6.826;2023-03-14T13:07:34;13.77;;;1.48;;
37049;SDS011;22958;51.232;6.826;2023-03-14T13:10:16;13.88;;;2.00;;
37049;SDS011;22958;51.232;6.826;2023-03-14T13:12:48;17.08;;;2.08;;
37049;SDS011;22958;51.232;6.826;2023-03-14T13:15:23;25.52;;;2.53;;
37049;SDS011;22958;51.232;6.826;2023-03-14T13:18:35;26.38;;;3.03;;
37049;SDS011;22958;51.232;6.826;2023-03-14T13:21:16;21.58;;;2.97;;
37049;SDS011;22958;51.232;6.826;2023-03-14T13:26:41;25.17;;;3.40;;
37049;SDS011;22958;51.232;6.826;2023-03-14T13:29:08;26.90;;;3.97;;
37049;SDS011;22958;51.232;6.826;2023-03-14T13:31:56;21.27;;;3.20;;
37049;SDS011;22958;51.232;6.826;2023-03-14T13:34:33;24.20;;;4.15;;
37049;SDS011;22958;51.232;6.826;2023-03-14T13:36:59;31.65;;;3.55;;
37049;SDS011;22958;51.232;6.826;2023-03-14T13:39:25;23.57;;;2.60;;
37049;SDS011;22958;51.232;6.826;2023-03-14T13:41:55;17.02;;;2.85;;
37049;SDS011;22958;51.232;6.826;2023-03-14T13:44:25;20.73;;;2.92;;
37049;SDS011;22958;51.232;6.826;2023-03-14T13:47:03;25.27;;;2.95;;
37049;SDS011;22958;51.232;6.826;2023-03-14T13:49:32;16.27;;;2.85;;
37049;SDS011;22958;51.232;6.826;2023-03-14T13:52:00;36.63;;;4.35;;
37049;SDS011;22958;51.232;6.826;2023-03-14T13:54:26;24.75;;;2.92;;
37049;SDS011;22958;51.232;6.826;2023-03-14T13:57:05;39.88;;;5.05;;
37049;SDS011;22958;51.232;6.826;2023-03-14T13:59:32;44.55;;;3.50;;
37049;SDS011;22958;51.232;6.826;2023-03-14T14:01:59;33.10;;;3.42;;
37049;SDS011;22958;51.232;6.826;2023-03-14T14:04:29;35.97;;;5.38;;
37049;SDS011;22958;51.232;6.826;2023-03-14T14:07:00;23.13;;;2.90;;
37049;SDS011;22958;51.232;6.826;2023-03-14T14:09:38;20.17;;;2.95;;
37049;SDS011;22958;51.232;6.826;2023-03-14T14:14:44;15.80;;;3.42;;
37049;SDS011;22958;51.232;6.826;2023-03-14T14:17:15;49.92;;;4.57;;
37049;SDS011;22958;51.232;6.826;2023-03-14T14:19:44;15.00;;;3.13;;
37049;SDS011;22958;51.232;6.826;2023-03-14T14:22:11;17.98;;;3.17;;
37049;SDS011;22958;51.232;6.826;2023-03-14T14:24:37;23.93;;;3.77;;
37049;SDS011;22958;51.232;6.826;2023-03-14T14:27:13;25.38;;;4.28;;
37049;SDS011;22958;51.232;6.826;2023-03-14T14:32:49;28.08;;;4.25;;
37049;SDS011;22958;51.232;6.826;2023-03-14T14:37:58;40.80;;;5.32;;
37049;SDS011;22958;51.232;6.826;2023-03-14T14:40:25;29.00;;;3.47;;
37049;SDS011;22958;51.232;6.826;2023-03-14T14:42:52;32.10;;;3.83;;
37049;SDS011;22958;51.232;6.826;2023-03-14T14:45:19;20.00;;;2.83;;
37049;SDS011;22958;51.232;6.826;2023-03-14T14:47:54;31.15;;;3.55;;
37049;SDS011;22958;51.232;6.826;2023-03-14T14:52:56;21.70;;;3.33;;
37049;SDS011;22958;51.232;6.826;2023-03-14T14:55:22;25.38;;;3.15;;
37049;SDS011;22958;51.232;6.826;2023-03-14T14:57:57;17.02;;;2.83;;
37049;SDS011;22958;51.232;6.826;2023-03-14T15:00:24;20.93;;;3.20;;
37049;SDS011;22958;51.232;6.826;2023-03-14T15:02:51;22.20;;;2.67;;
37049;SDS011;22958;51.232;6.826;2023-03-14T15:05:25;13.85;;;2.72;;
37049;SDS011;22958;51.232;6.826;2023-03-14T15:07:52;16.73;;;1.90;;
37049;SDS011;22958;51.232;6.826;2023-03-14T15:10:19;19.90;;;3.08;;
37049;SDS011;22958;51.232;6.826;2023-03-14T15:12:48;16.48;;;2.28;;
37049;SDS011;22958;51.232;6.826;2023-03-14T15:15:14;15.17;;;2.33;;
37049;SDS011;22958;51.232;6.826;2023-03-14T15:17:40;14.82;;;2.50;;
37049;SDS011;22958;51.232;6.826;2023-03-14T15:20:10;17.40;;;2.33;;
37049;SDS011;22958;51.232;6.826;2023-03-14T15:22:38;20.25;;;2.72;;
37049;SDS011;22958;51.232;6.826;2023-03-14T15:25:05;15.75;;;2.05;;
37049;SDS011;22958;51.232;6.826;2023-03-14T15:27:31;21.58;;;2.15;;
37049;SDS011;22958;51.232;6.826;2023-03-14T15:29:57;16.47;;;2.30;;
37049;SDS011;22958;51.232;6.826;2023-03-14T15:32:24;11.55;;;2.10;;
37049;SDS011;22958;51.232;6.826;2023-03-14T15:34:52;11.65;;;1.75;;
37049;SDS011;22958;51.232;6.826;2023-03-14T15:37:19;12.93;;;2.20;;
37049;SDS011;22958;51.232;6.826;2023-03-14T15:39:44;17.67;;;2.43;;
37049;SDS011;22958;51.232;6.826;2023-03-14T15:42:10;24.33;;;2.78;;
37049;SDS011;22958;51.232;6.826;2023-03-14T15:44:36;17.50;;;2.13;;
37049;SDS011;22958;51.232;6.826;2023-03-14T15:47:02;14.20;;;2.17;;
37049;SDS011;22958;51.232;6.826;2023-03-14T15:49:28;23.60;;;2.60;;
37049;SDS011;22958;51.232;6.826;2023-03-14T15:51:54;15.70;;;2.00;;
37049;SDS011;22958;51.232;6.826;2023-03-14T15:54:19;20.83;;;2.10;;
37049;SDS011;22958;51.232;6.826;2023-03-14T15:56:45;18.87;;;2.00;;
37049;SDS011;22958;51.232;6.826;2023-03-14T15:59:11;15.23;;;2.30;;
37049;SDS011;22958;51.232;6.826;2023-03-14T16:01:36;21.90;;;2.60;;
37049;SDS011;22958;51.232;6.826;2023-03-14T16:04:02;10.83;;;1.97;;
37049;SDS011;22958;51.232;6.826;2023-03-14T16:06:28;18.42;;;3.47;;
37049;SDS011;22958;51.232;6.826;2023-03-14T16:08:55;20.98;;;2.35;;
37049;SDS011;22958;51.232;6.826;2023-03-14T16:11:21;21.87;;;2.30;;
37049;SDS011;22958;51.232;6.826;2023-03-14T16:13:46;17.33;;;2.37;;
37049;SDS011;22958;51.232;6.826;2023-03-14T16:16:12;10.27;;;1.83;;
37049;SDS011;22958;51.232;6.826;2023-03-14T16:18:38;12.63;;;1.88;;